Holbrook, ID

7:00 AM MST on January 29, 2015 (GMT -0700)
Middle of city block | Change Station
CLOSE
Current Station
Personal Weather Station
Location: Malad City, ID
Elevation: 4662 ft
Nearby Weather Stations

Elev 4662 ft 42.20 °N, 112.26 °W | Updated 21 seconds ago

Overcast
Overcast
31.3 °F
Feels Like 25 °F
N
6.0
Wind Variable Wind from NNE
Gusts 10.0 mph

Today
High -- | Low -- °F
--% Chance of Precip.
Yesterday
High -- | Low -- °F
Precip. -- in
7:46 AM 5:40 PM
Waxing Gibbous, 74% visible
Pressure 30.49 in
Visibility 6.0 miles
Clouds Overcast 300 ft
Windchill 25 °F
Dew Point 8 °F
Humidity 36%
Rainfall 0.00 in
Snow Depth Not available.
UV 0 out of 12
Pollen .30 out of 12
Air Quality Not available.
Flu Activity Not available.
METAR KPIH 291353Z 07003KT 6SM BR OVC003 01/01 A3043 RMK AO2 SLP324 T00060006

More Conditions Fewer Conditions

Pressure 30.49 in
Visibility 6.0 miles
Clouds Overcast 300 ft
Windchill 25 °F
Dew Point 8 °F
Humidity 36%
Rainfall 0.00 in
Snow Depth Not available.
UV 0 out of 12
Pollen .30 out of 12
Air Quality Not available.
Flu Activity Not available.
METAR KPIH 291353Z 07003KT 6SM BR OVC003 01/01 A3043 RMK AO2 SLP324 T00060006

More Conditions Fewer Conditions

10-Day Weather Forecast

Almanac

Astronomy

Jan. 29, 2015 Rise Set
Actual Time
Civil Twilight
Nautical Twilight
Astronomical Twilight
Moon
Length of Visible Light
Length of Day
Tomorrow will be .
, % of the Moon is Illuminated

Today's Extremes

State Highs State Lows

Community

WunderPhotos

Upload Photos

1,791,434 photos uploaded!

WunderBlogs® & News

Nearby

Air Quality

  Air Quality AQ Index Pollutant
Not available.

Snow Depth

Station Depth Elevation

Earthquake Activity

City Distance Mag. Time & Date
Minimum magnitude displayed is 2.5.

Coastal Water Temperatures

Place Temperature

Nearby Weather Stations